Time;durP1;ratioP1;P1;durP2;ratioP2;P2;SDS_P1;SDS_P2;PMS_P1;PMS_P2;Temp;Humidity;BMP_temperature;BMP_pressure;BME280_temperature;BME280_humidity;BME280_pressure;Samples;Min_cycle;Max_cycle;Signal;HPM_P1;HPM_P2
2022/08/23 00:01:33;;;;;;;5.10;2.87;;;;;;;;;;5094036;28;20451;-74
2022/08/23 00:04:01;;;;;;;3.43;3.13;;;;;;;;;;5093977;28;20980;-74
2022/08/23 00:06:29;;;;;;;4.30;2.97;;;;;;;;;;5094034;28;20461;-74
2022/08/23 00:08:56;;;;;;;5.00;3.07;;;;;;;;;;5094168;28;20463;-74
2022/08/23 00:11:29;;;;;;;3.10;2.80;;;;;;;;;;5093976;28;20457;-74
2022/08/23 00:13:57;;;;;;;3.13;2.77;;;;;;;;;;5093217;28;20980;-73
2022/08/23 00:16:25;;;;;;;4.00;2.93;;;;;;;;;;5093919;28;20805;-73
2022/08/23 00:18:52;;;;;;;5.03;2.57;;;;;;;;;;5094002;28;20451;-73
2022/08/23 00:21:19;;;;;;;3.17;2.87;;;;;;;;;;5093667;28;20458;-73
2022/08/23 00:23:46;;;;;;;4.87;2.60;;;;;;;;;;5093780;28;20490;-73
2022/08/23 00:26:13;;;;;;;4.33;2.77;;;;;;;;;;5093631;28;20446;-73
2022/08/23 00:28:41;;;;;;;3.00;2.67;;;;;;;;;;5093613;28;20820;-73
2022/08/23 00:31:08;;;;;;;2.77;2.30;;;;;;;;;;5093814;28;20450;-73
2022/08/23 00:33:36;;;;;;;3.13;2.90;;;;;;;;;;5093203;28;20454;-73
2022/08/23 00:36:03;;;;;;;3.13;2.60;;;;;;;;;;5093625;28;20818;-73
2022/08/23 00:38:30;;;;;;;2.90;2.60;;;;;;;;;;5093523;28;20948;-73
2022/08/23 00:40:57;;;;;;;3.00;2.70;;;;;;;;;;5093455;28;20451;-74
2022/08/23 00:49:07;;;;;;;3.97;3.20;;;;;;;;;;5093345;28;20431;-74
2022/08/23 00:51:36;;;;;;;3.70;2.83;;;;;;;;;;5093244;28;20556;-74
2022/08/23 00:54:04;;;;;;;3.53;3.23;;;;;;;;;;5093067;28;20470;-74
2022/08/23 00:56:34;;;;;;;5.73;2.73;;;;;;;;;;5092895;28;20454;-74
2022/08/23 00:59:01;;;;;;;3.47;2.73;;;;;;;;;;5093341;28;20825;-73
2022/08/23 01:01:29;;;;;;;3.10;2.80;;;;;;;;;;5093143;28;20450;-73
2022/08/23 01:03:59;;;;;;;2.70;2.40;;;;;;;;;;5093027;28;20490;-73
2022/08/23 01:06:27;;;;;;;3.03;2.67;;;;;;;;;;5093166;28;20458;-73
2022/08/23 01:08:58;;;;;;;5.90;4.50;;;;;;;;;;5093355;28;20455;-73
2022/08/23 01:11:31;;;;;;;5.60;2.60;;;;;;;;;;5093089;28;20461;-73
2022/08/23 01:14:00;;;;;;;4.20;2.80;;;;;;;;;;5092262;28;20471;-73
2022/08/23 01:16:32;;;;;;;3.13;2.53;;;;;;;;;;5093010;28;20454;-73
2022/08/23 01:19:02;;;;;;;2.73;2.37;;;;;;;;;;5093086;28;20459;-73
2022/08/23 01:21:31;;;;;;;3.30;3.00;;;;;;;;;;5092829;28;20467;-73
2022/08/23 01:24:02;;;;;;;4.00;2.40;;;;;;;;;;5092631;28;20523;-73
2022/08/23 01:26:30;;;;;;;3.37;3.07;;;;;;;;;;5092904;28;20458;-73
2022/08/23 01:28:57;;;;;;;2.97;2.67;;;;;;;;;;5093104;28;20458;-73
2022/08/23 01:31:25;;;;;;;3.70;3.27;;;;;;;;;;5092822;28;20454;-73
2022/08/23 01:33:55;;;;;;;3.43;3.13;;;;;;;;;;5092678;28;20833;-73
2022/08/23 01:36:23;;;;;;;4.40;3.03;;;;;;;;;;5092830;28;20462;-73
2022/08/23 01:38:50;;;;;;;4.10;3.23;;;;;;;;;;5093194;28;20954;-73
2022/08/23 01:41:19;;;;;;;4.63;3.60;;;;;;;;;;5092728;28;20948;-73
2022/08/23 01:43:46;;;;;;;3.40;3.10;;;;;;;;;;5092334;28;20548;-73
2022/08/23 01:46:15;;;;;;;7.17;3.47;;;;;;;;;;5092727;28;20453;-73
2022/08/23 01:48:44;;;;;;;4.63;3.40;;;;;;;;;;5092627;28;20553;-73
2022/08/23 01:51:11;;;;;;;3.90;3.50;;;;;;;;;;5092728;28;20455;-73
2022/08/23 01:53:38;;;;;;;3.90;3.50;;;;;;;;;;5092377;28;20478;-73
2022/08/23 01:56:06;;;;;;;3.80;3.50;;;;;;;;;;5092610;28;20447;-73
2022/08/23 01:58:36;;;;;;;4.97;3.87;;;;;;;;;;5092558;28;20970;-73
2022/08/23 02:01:04;;;;;;;4.13;3.73;;;;;;;;;;5092565;28;20447;-73
2022/08/23 02:03:31;;;;;;;4.60;3.80;;;;;;;;;;5092140;28;20562;-73
2022/08/23 02:05:59;;;;;;;4.13;3.70;;;;;;;;;;5092521;28;20442;-73
2022/08/23 02:11:13;;;;;;;4.97;3.80;;;;;;;;;;5096518;28;20504;-73
2022/08/23 02:13:42;;;;;;;5.90;3.60;;;;;;;;;;5095536;28;20493;-73
2022/08/23 02:16:10;;;;;;;3.40;3.10;;;;;;;;;;5096411;28;20450;-73
2022/08/23 02:18:37;;;;;;;5.30;3.57;;;;;;;;;;5096143;28;20446;-73
2022/08/23 02:21:05;;;;;;;4.03;3.40;;;;;;;;;;5096012;28;20481;-73
2022/08/23 02:23:32;;;;;;;3.40;3.10;;;;;;;;;;5095754;28;20898;-73
2022/08/23 02:25:59;;;;;;;3.40;3.10;;;;;;;;;;5096096;28;20446;-73
2022/08/23 02:28:26;;;;;;;4.13;3.20;;;;;;;;;;5095936;28;20974;-73
2022/08/23 02:30:54;;;;;;;4.20;3.73;;;;;;;;;;5096032;28;20462;-73
2022/08/23 02:33:22;;;;;;;4.27;3.83;;;;;;;;;;5095801;28;20478;-73
2022/08/23 02:35:49;;;;;;;6.43;3.67;;;;;;;;;;5095710;28;20729;-73
2022/08/23 02:38:16;;;;;;;4.53;4.13;;;;;;;;;;5095830;28;20952;-73
2022/08/23 02:40:44;;;;;;;5.17;4.07;;;;;;;;;;5095757;28;20454;-73
2022/08/23 02:43:12;;;;;;;4.63;4.23;;;;;;;;;;5095634;28;20497;-73
2022/08/23 02:45:39;;;;;;;6.40;4.60;;;;;;;;;;5095479;28;20446;-73
2022/08/23 02:48:08;;;;;;;4.77;4.27;;;;;;;;;;5095485;28;20442;-73
2022/08/23 02:50:36;;;;;;;5.93;4.63;;;;;;;;;;5095590;28;20952;-73
2022/08/23 02:53:03;;;;;;;4.60;4.20;;;;;;;;;;5095510;28;20466;-73
2022/08/23 02:55:30;;;;;;;3.90;3.50;;;;;;;;;;5095097;28;20454;-73
2022/08/23 02:57:57;;;;;;;6.07;5.53;;;;;;;;;;5095547;28;20826;-73
2022/08/23 03:00:25;;;;;;;5.50;5.00;;;;;;;;;;5095318;28;20455;-73
2022/08/23 03:02:52;;;;;;;8.13;4.57;;;;;;;;;;5095131;28;20498;-73
2022/08/23 03:05:20;;;;;;;4.37;3.97;;;;;;;;;;5095016;28;20477;-73
2022/08/23 03:07:47;;;;;;;6.47;4.00;;;;;;;;;;5095158;28;20959;-73
2022/08/23 03:10:16;;;;;;;5.20;4.60;;;;;;;;;;5095133;28;20793;-73
2022/08/23 03:12:43;;;;;;;5.13;4.60;;;;;;;;;;5094573;28;20447;-74
2022/08/23 03:15:10;;;;;;;7.37;6.67;;;;;;;;;;5095016;28;20821;-74
2022/08/23 03:17:37;;;;;;;5.60;4.70;;;;;;;;;;5095129;28;20450;-74
2022/08/23 03:20:05;;;;;;;5.10;4.70;;;;;;;;;;5095012;28;20447;-74
2022/08/23 03:22:34;;;;;;;4.90;4.43;;;;;;;;;;5094629;28;20463;-73
2022/08/23 03:25:01;;;;;;;6.40;4.47;;;;;;;;;;5094816;28;20458;-73
2022/08/23 03:27:30;;;;;;;6.37;4.47;;;;;;;;;;5094731;28;20462;-73
2022/08/23 03:29:57;;;;;;;5.17;4.67;;;;;;;;;;5094938;28;20447;-73
2022/08/23 03:32:25;;;;;;;6.00;5.50;;;;;;;;;;5094954;28;20827;-73
2022/08/23 03:34:52;;;;;;;4.90;4.40;;;;;;;;;;5094530;28;21002;-73
2022/08/23 03:37:19;;;;;;;8.93;7.37;;;;;;;;;;5094655;28;20504;-73
2022/08/23 03:39:48;;;;;;;6.13;4.87;;;;;;;;;;5094652;28;20453;-73
2022/08/23 03:42:15;;;;;;;5.67;5.17;;;;;;;;;;5094648;28;20454;-73
2022/08/23 03:44:42;;;;;;;7.80;5.47;;;;;;;;;;5094260;28;20498;-73
2022/08/23 03:47:09;;;;;;;9.87;6.47;;;;;;;;;;5094582;28;20470;-73
2022/08/23 03:49:37;;;;;;;7.83;7.03;;;;;;;;;;5094306;28;20462;-73
2022/08/23 03:52:04;;;;;;;6.70;5.80;;;;;;;;;;5094731;28;20870;-73
2022/08/23 03:54:32;;;;;;;5.57;4.80;;;;;;;;;;5094014;28;20462;-73
2022/08/23 03:57:02;;;;;;;6.30;5.33;;;;;;;;;;5094344;28;20932;-73
2022/08/23 03:59:30;;;;;;;8.80;5.93;;;;;;;;;;5094337;28;20446;-73
2022/08/23 04:01:57;;;;;;;7.13;6.30;;;;;;;;;;5094231;28;20493;-73
2022/08/23 04:04:24;;;;;;;7.20;6.17;;;;;;;;;;5093860;28;20490;-73
2022/08/23 04:06:51;;;;;;;14.10;7.47;;;;;;;;;;5094117;28;20454;-73
2022/08/23 04:09:18;;;;;;;8.70;7.40;;;;;;;;;;5093930;28;20458;-73
2022/08/23 04:11:45;;;;;;;8.37;6.90;;;;;;;;;;5094143;28;20948;-73
2022/08/23 04:14:14;;;;;;;6.60;5.67;;;;;;;;;;5093195;28;20477;-72
2022/08/23 04:16:43;;;;;;;10.83;6.77;;;;;;;;;;5093885;28;20451;-72
2022/08/23 04:19:11;;;;;;;10.27;5.93;;;;;;;;;;5093831;28;20550;-73
2022/08/23 04:21:40;;;;;;;7.67;5.70;;;;;;;;;;5093663;28;20944;-73
2022/08/23 04:24:07;;;;;;;9.67;6.40;;;;;;;;;;5093487;28;20490;-73
2022/08/23 04:26:34;;;;;;;7.47;6.77;;;;;;;;;;5093767;28;20451;-73
2022/08/23 04:29:01;;;;;;;9.80;7.03;;;;;;;;;;5093643;28;20466;-73
2022/08/23 04:31:32;;;;;;;11.60;7.53;;;;;;;;;;5093277;28;20446;-73
2022/08/23 04:33:59;;;;;;;12.33;7.40;;;;;;;;;;5093469;28;20463;-73
2022/08/23 04:36:26;;;;;;;12.73;10.20;;;;;;;;;;5093472;28;20466;-73
2022/08/23 04:38:53;;;;;;;10.37;8.00;;;;;;;;;;5093475;28;20455;-73
2022/08/23 04:44:05;;;;;;;8.40;7.60;;;;;;;;;;5093228;28;20486;-73
2022/08/23 04:46:34;;;;;;;9.37;8.00;;;;;;;;;;5093260;28;20458;-73
2022/08/23 04:49:01;;;;;;;8.50;7.40;;;;;;;;;;5093500;28;20450;-73
2022/08/23 04:51:28;;;;;;;8.50;6.97;;;;;;;;;;5093287;28;20457;-73
2022/08/23 04:53:55;;;;;;;9.50;8.60;;;;;;;;;;5093043;28;20467;-73
2022/08/23 04:56:23;;;;;;;10.03;8.87;;;;;;;;;;5093137;28;20477;-73
2022/08/23 04:58:50;;;;;;;9.10;8.17;;;;;;;;;;5093259;28;20455;-73
2022/08/23 05:01:17;;;;;;;9.60;7.60;;;;;;;;;;5093268;28;20451;-73
2022/08/23 05:03:45;;;;;;;8.30;7.50;;;;;;;;;;5092869;28;20497;-73
2022/08/23 05:06:13;;;;;;;8.50;7.70;;;;;;;;;;5091654;28;20944;-73
2022/08/23 05:08:40;;;;;;;13.23;11.80;;;;;;;;;;5092854;28;20466;-73
2022/08/23 05:11:08;;;;;;;11.53;8.20;;;;;;;;;;5092904;28;20469;-73
2022/08/23 05:13:36;;;;;;;18.53;7.70;;;;;;;;;;5092141;28;20462;-74
2022/08/23 05:16:04;;;;;;;7.47;6.13;;;;;;;;;;5092789;28;20455;-73
2022/08/23 05:18:32;;;;;;;11.13;6.67;;;;;;;;;;5092253;28;20457;-73
2022/08/23 05:21:01;;;;;;;7.17;6.50;;;;;;;;;;5092838;28;20468;-73
2022/08/23 05:23:28;;;;;;;9.87;6.40;;;;;;;;;;5092351;28;20539;-73
2022/08/23 05:25:57;;;;;;;7.70;6.90;;;;;;;;;;5092756;28;20793;-73
2022/08/23 05:28:25;;;;;;;7.07;6.40;;;;;;;;;;5092512;28;20491;-73
2022/08/23 05:30:56;;;;;;;7.53;6.60;;;;;;;;;;5092871;28;20832;-73
2022/08/23 05:33:23;;;;;;;6.63;6.03;;;;;;;;;;5092473;28;20512;-73
2022/08/23 05:35:51;;;;;;;6.97;6.47;;;;;;;;;;5092590;28;20920;-73
2022/08/23 05:38:19;;;;;;;6.90;5.90;;;;;;;;;;5092628;28;20451;-73
2022/08/23 05:40:48;;;;;;;6.87;6.00;;;;;;;;;;5092603;28;20447;-73
2022/08/23 05:43:16;;;;;;;9.37;6.97;;;;;;;;;;5093949;28;20479;-73
2022/08/23 05:45:43;;;;;;;8.70;6.60;;;;;;;;;;5096367;28;20897;-73
2022/08/23 05:48:10;;;;;;;8.63;5.43;;;;;;;;;;5096689;28;20528;-73
2022/08/23 05:50:38;;;;;;;7.87;6.10;;;;;;;;;;5096521;28;20826;-73
2022/08/23 05:53:06;;;;;;;6.40;4.40;;;;;;;;;;5096682;28;20598;-73
2022/08/23 05:55:35;;;;;;;5.33;4.83;;;;;;;;;;5096024;28;20458;-73
2022/08/23 05:58:02;;;;;;;5.87;5.07;;;;;;;;;;5096485;28;20455;-73
2022/08/23 06:00:29;;;;;;;5.10;4.53;;;;;;;;;;5096369;28;20454;-73
2022/08/23 06:02:56;;;;;;;8.40;4.97;;;;;;;;;;5096303;28;20475;-73
2022/08/23 06:05:24;;;;;;;7.57;5.20;;;;;;;;;;5095884;28;20490;-73
2022/08/23 06:07:51;;;;;;;16.87;4.47;;;;;;;;;;5096449;28;20514;-73
2022/08/23 06:10:20;;;;;;;5.47;4.93;;;;;;;;;;5096186;28;20450;-73
2022/08/23 06:12:48;;;;;;;10.77;5.67;;;;;;;;;;5095811;28;20624;-73
2022/08/23 06:15:15;;;;;;;5.43;4.90;;;;;;;;;;5095860;28;20446;-73
2022/08/23 06:17:43;;;;;;;5.07;4.57;;;;;;;;;;5095986;28;20450;-73
2022/08/23 06:20:10;;;;;;;7.57;3.77;;;;;;;;;;5096181;28;20813;-73
2022/08/23 06:22:37;;;;;;;5.77;5.13;;;;;;;;;;5092688;28;20461;-73
2022/08/23 06:25:05;;;;;;;5.23;3.83;;;;;;;;;;5093933;28;20508;-73
2022/08/23 06:27:32;;;;;;;6.83;4.30;;;;;;;;;;5094267;28;20801;-74
2022/08/23 06:30:00;;;;;;;4.00;3.70;;;;;;;;;;5094539;28;20455;-73
2022/08/23 06:32:27;;;;;;;4.07;3.77;;;;;;;;;;5094551;28;20944;-73
2022/08/23 06:34:55;;;;;;;8.37;4.00;;;;;;;;;;5094378;28;20458;-74
2022/08/23 06:37:22;;;;;;;4.00;3.60;;;;;;;;;;5093996;28;20450;-74
2022/08/23 06:39:49;;;;;;;4.57;4.17;;;;;;;;;;5094524;28;20541;-74
2022/08/23 06:42:17;;;;;;;5.13;4.40;;;;;;;;;;5094377;28;20446;-74
2022/08/23 06:44:44;;;;;;;4.03;3.63;;;;;;;;;;5093791;28;20486;-74
2022/08/23 06:47:12;;;;;;;5.20;3.13;;;;;;;;;;5094455;28;20940;-74
2022/08/23 06:49:39;;;;;;;3.57;3.27;;;;;;;;;;5094170;28;20450;-74
2022/08/23 06:52:07;;;;;;;4.60;3.60;;;;;;;;;;5094048;28;20833;-74
2022/08/23 06:54:36;;;;;;;4.10;3.70;;;;;;;;;;5093300;28;20814;-74
2022/08/23 06:57:04;;;;;;;5.27;3.10;;;;;;;;;;5094178;28;20537;-74
2022/08/23 06:59:31;;;;;;;5.10;4.60;;;;;;;;;;5093762;28;20457;-74
2022/08/23 07:01:59;;;;;;;7.40;3.77;;;;;;;;;;5094186;28;20470;-74
2022/08/23 07:04:28;;;;;;;5.40;3.80;;;;;;;;;;5093556;28;20846;-74
2022/08/23 07:06:56;;;;;;;5.53;3.70;;;;;;;;;;5093802;28;20454;-74
2022/08/23 07:09:24;;;;;;;5.73;3.33;;;;;;;;;;5093838;28;20826;-73
2022/08/23 07:11:51;;;;;;;4.93;3.37;;;;;;;;;;5093750;28;20505;-73
2022/08/23 07:14:19;;;;;;;5.70;3.60;;;;;;;;;;5093007;28;20467;-73
2022/08/23 07:16:48;;;;;;;3.63;3.33;;;;;;;;;;5093640;28;20451;-73
2022/08/23 07:19:16;;;;;;;3.70;3.40;;;;;;;;;;5093641;28;20959;-73
2022/08/23 07:21:45;;;;;;;4.40;3.20;;;;;;;;;;5093591;28;20480;-73
2022/08/23 07:24:12;;;;;;;4.47;3.30;;;;;;;;;;5093269;28;20487;-73
2022/08/23 07:26:40;;;;;;;6.67;3.90;;;;;;;;;;5093526;28;20998;-73
2022/08/23 07:29:07;;;;;;;4.60;3.53;;;;;;;;;;5093538;28;20451;-73
2022/08/23 07:31:36;;;;;;;3.40;3.10;;;;;;;;;;5093384;28;20963;-73
2022/08/23 07:34:04;;;;;;;4.97;3.03;;;;;;;;;;5093225;28;20473;-73
2022/08/23 07:36:33;;;;;;;3.20;2.80;;;;;;;;;;5093123;28;20447;-73
2022/08/23 07:39:02;;;;;;;4.20;3.10;;;;;;;;;;5093456;28;20466;-74
2022/08/23 07:41:30;;;;;;;6.00;2.67;;;;;;;;;;5093287;28;20455;-74
2022/08/23 07:43:58;;;;;;;4.23;2.40;;;;;;;;;;5092694;28;20501;-74
2022/08/23 07:46:26;;;;;;;5.93;2.47;;;;;;;;;;5093031;28;20450;-73
2022/08/23 07:48:53;;;;;;;2.20;2.00;;;;;;;;;;5092687;28;20447;-73
2022/08/23 07:51:21;;;;;;;2.73;2.40;;;;;;;;;;5091925;28;20451;-73
2022/08/23 07:53:48;;;;;;;2.60;2.40;;;;;;;;;;5092887;28;20527;-73
2022/08/23 07:56:18;;;;;;;3.77;2.77;;;;;;;;;;5092925;28;20948;-73
2022/08/23 07:58:46;;;;;;;3.87;2.30;;;;;;;;;;5093086;28;20511;-73
2022/08/23 08:01:14;;;;;;;3.87;2.73;;;;;;;;;;5092839;28;20450;-73
2022/08/23 08:03:42;;;;;;;3.57;2.40;;;;;;;;;;5092352;28;20504;-73
2022/08/23 08:06:11;;;;;;;6.93;2.43;;;;;;;;;;5091819;28;20540;-73
2022/08/23 08:08:38;;;;;;;3.40;2.43;;;;;;;;;;5092604;28;20450;-73
2022/08/23 08:11:05;;;;;;;4.03;2.47;;;;;;;;;;5092757;28;20451;-73
2022/08/23 08:13:34;;;;;;;3.93;2.43;;;;;;;;;;5092007;28;20478;-73
2022/08/23 08:16:01;;;;;;;4.23;2.20;;;;;;;;;;5092853;28;20465;-73
2022/08/23 08:18:28;;;;;;;8.80;3.17;;;;;;;;;;5092865;28;20455;-73
2022/08/23 08:20:55;;;;;;;8.50;3.20;;;;;;;;;;5093846;28;20485;-74
2022/08/23 08:23:22;;;;;;;5.30;2.43;;;;;;;;;;5093209;28;20473;-74
2022/08/23 08:25:50;;;;;;;5.10;3.73;;;;;;;;;;5093498;28;20499;-74
2022/08/23 08:28:17;;;;;;;3.07;2.13;;;;;;;;;;5093662;28;20454;-74
2022/08/23 08:30:45;;;;;;;2.80;2.27;;;;;;;;;;5093572;28;20808;-75
2022/08/23 08:33:13;;;;;;;6.00;2.40;;;;;;;;;;5093604;28;20470;-80
2022/08/23 08:35:40;;;;;;;4.53;2.40;;;;;;;;;;5093298;28;20439;-74
2022/08/23 08:38:07;;;;;;;7.07;2.33;;;;;;;;;;5093632;28;20473;-74
2022/08/23 08:40:40;;;;;;;4.70;4.10;;;;;;;;;;5093483;28;20455;-74
2022/08/23 08:43:23;;;;;;;3.07;2.70;;;;;;;;;;5093484;28;20474;-74
2022/08/23 08:45:55;;;;;;;6.60;2.50;;;;;;;;;;5093270;28;20483;-75
2022/08/23 08:48:24;;;;;;;2.70;2.20;;;;;;;;;;5093369;28;20446;-74
2022/08/23 08:50:55;;;;;;;4.43;2.07;;;;;;;;;;5093350;28;20453;-74
2022/08/23 08:53:26;;;;;;;4.07;2.67;;;;;;;;;;5093155;28;20479;-75
2022/08/23 08:55:55;;;;;;;2.40;1.90;;;;;;;;;;5093378;28;20935;-74
2022/08/23 08:58:25;;;;;;;3.20;2.20;;;;;;;;;;5093154;28;20453;-74
2022/08/23 09:00:53;;;;;;;3.03;2.50;;;;;;;;;;5093148;28;20458;-74
2022/08/23 09:03:21;;;;;;;4.00;2.67;;;;;;;;;;5092978;28;20565;-74
2022/08/23 09:05:54;;;;;;;2.20;1.63;;;;;;;;;;5092956;28;21007;-74
2022/08/23 09:08:29;;;;;;;2.63;1.83;;;;;;;;;;5093046;28;20458;-74
2022/08/23 09:11:01;;;;;;;2.90;1.70;;;;;;;;;;5093157;28;20457;-74
2022/08/23 09:13:40;;;;;;;5.90;2.80;;;;;;;;;;5092401;28;20471;-74
2022/08/23 09:16:16;;;;;;;2.73;2.17;;;;;;;;;;5093318;28;20500;-74
2022/08/23 09:18:43;;;;;;;3.00;2.37;;;;;;;;;;5092935;28;20931;-74
2022/08/23 09:21:10;;;;;;;2.70;2.10;;;;;;;;;;5092978;28;20507;-74
2022/08/23 09:23:41;;;;;;;2.83;1.90;;;;;;;;;;5092639;28;20480;-74
2022/08/23 09:26:17;;;;;;;2.30;2.00;;;;;;;;;;5093120;28;20581;-74
2022/08/23 09:28:45;;;;;;;3.33;1.73;;;;;;;;;;5092978;28;20462;-74
2022/08/23 09:31:33;;;;;;;3.93;2.90;;;;;;;;;;5092949;28;20496;-74
2022/08/23 09:34:01;;;;;;;5.77;5.20;;;;;;;;;;5092726;28;20979;-74
2022/08/23 09:36:32;;;;;;;3.50;2.03;;;;;;;;;;5092669;28;20527;-74
2022/08/23 09:39:01;;;;;;;2.53;1.60;;;;;;;;;;5092855;28;20446;-74
2022/08/23 09:41:32;;;;;;;2.27;1.87;;;;;;;;;;5092722;28;20446;-74
2022/08/23 09:44:01;;;;;;;4.23;2.00;;;;;;;;;;5092655;28;20528;-74
2022/08/23 09:46:30;;;;;;;3.40;2.67;;;;;;;;;;5092669;28;20490;-74
2022/08/23 09:48:59;;;;;;;5.80;2.20;;;;;;;;;;5083387;28;20454;-74
2022/08/23 09:51:30;;;;;;;1.90;1.70;;;;;;;;;;5091854;28;20458;-76
2022/08/23 09:54:04;;;;;;;2.20;2.00;;;;;;;;;;5091127;28;20557;-74
2022/08/23 09:56:33;;;;;;;4.57;2.30;;;;;;;;;;5091951;28;20950;-74
2022/08/23 09:59:00;;;;;;;3.50;2.27;;;;;;;;;;5092401;28;20453;-74
2022/08/23 10:01:28;;;;;;;2.83;2.50;;;;;;;;;;5091610;28;20446;-74
2022/08/23 10:04:10;;;;;;;3.00;2.60;;;;;;;;;;5092201;28;20474;-75
2022/08/23 10:06:38;;;;;;;3.30;3.00;;;;;;;;;;5092299;28;20486;-74
2022/08/23 10:09:06;;;;;;;3.60;2.10;;;;;;;;;;5092451;28;20496;-74
2022/08/23 10:11:35;;;;;;;6.57;3.10;;;;;;;;;;5092500;28;20454;-74
2022/08/23 10:14:03;;;;;;;3.60;2.23;;;;;;;;;;5091893;28;20840;-74
2022/08/23 10:16:34;;;;;;;2.47;2.10;;;;;;;;;;5092462;28;20454;-74
2022/08/23 10:19:05;;;;;;;3.97;2.40;;;;;;;;;;5092527;28;20455;-74
2022/08/23 10:21:39;;;;;;;3.30;1.90;;;;;;;;;;5092359;28;20462;-74
2022/08/23 10:24:14;;;;;;;2.60;1.60;;;;;;;;;;5087759;28;20968;-74
2022/08/23 10:26:45;;;;;;;2.17;1.63;;;;;;;;;;5091474;28;21020;-74
2022/08/23 10:32:04;;;;;;;2.63;1.97;;;;;;;;;;5095717;28;20939;-74
2022/08/23 10:34:41;;;;;;;4.60;1.90;;;;;;;;;;5095571;28;20474;-74
2022/08/23 10:37:21;;;;;;;7.97;2.43;;;;;;;;;;5095813;28;20450;-74
2022/08/23 10:39:51;;;;;;;4.27;1.50;;;;;;;;;;5095905;28;20453;-74
2022/08/23 10:42:21;;;;;;;3.10;1.90;;;;;;;;;;5095639;28;20491;-74
2022/08/23 10:44:51;;;;;;;4.77;1.80;;;;;;;;;;5095362;28;20470;-74
2022/08/23 10:47:26;;;;;;;4.87;2.00;;;;;;;;;;5095574;28;21011;-74
2022/08/23 10:49:54;;;;;;;2.73;1.67;;;;;;;;;;5095656;28;20511;-74
2022/08/23 10:52:24;;;;;;;2.20;2.00;;;;;;;;;;5095455;28;20455;-73
2022/08/23 10:54:59;;;;;;;2.23;2.03;;;;;;;;;;5095411;28;20471;-74
2022/08/23 10:57:31;;;;;;;2.70;1.60;;;;;;;;;;5095420;28;20446;-74
2022/08/23 10:59:59;;;;;;;2.37;2.17;;;;;;;;;;5095549;28;20557;-74
2022/08/23 11:02:31;;;;;;;2.33;2.13;;;;;;;;;;5095444;28;20457;-74
2022/08/23 11:05:03;;;;;;;3.73;2.20;;;;;;;;;;5095070;28;20455;-74
2022/08/23 11:07:34;;;;;;;4.37;2.03;;;;;;;;;;5095360;28;20454;-74
2022/08/23 11:10:12;;;;;;;2.03;1.83;;;;;;;;;;5095287;28;20450;-74
2022/08/23 11:12:51;;;;;;;3.40;3.10;;;;;;;;;;5094896;28;20450;-74
2022/08/23 11:15:21;;;;;;;2.30;1.90;;;;;;;;;;5095032;28;20948;-74
2022/08/23 11:18:02;;;;;;;2.93;2.00;;;;;;;;;;5095216;28;20451;-75
2022/08/23 11:20:48;;;;;;;3.00;1.80;;;;;;;;;;5095009;28;20940;-75
2022/08/23 11:23:17;;;;;;;3.90;1.90;;;;;;;;;;5095009;28;20466;-75
2022/08/23 11:25:45;;;;;;;2.30;2.10;;;;;;;;;;5094825;28;20874;-75
2022/08/23 11:28:38;;;;;;;2.30;2.07;;;;;;;;;;5094997;28;20446;-75
2022/08/23 11:31:19;;;;;;;3.67;1.80;;;;;;;;;;5095052;28;20508;-75
2022/08/23 11:33:48;;;;;;;2.60;2.30;;;;;;;;;;5094697;28;20474;-75
2022/08/23 11:36:17;;;;;;;2.97;1.80;;;;;;;;;;5094788;28;20451;-75
2022/08/23 11:39:02;;;;;;;2.97;1.50;;;;;;;;;;5094895;28;20446;-76
2022/08/23 11:41:32;;;;;;;1.97;1.53;;;;;;;;;;5094532;28;20454;-76
2022/08/23 11:44:23;;;;;;;2.90;1.50;;;;;;;;;;5094257;28;20479;-75
2022/08/23 11:47:00;;;;;;;5.63;1.87;;;;;;;;;;5079344;28;21017;-75
2022/08/23 11:49:46;;;;;;;2.43;1.50;;;;;;;;;;5094490;28;20454;-75
2022/08/23 11:52:19;;;;;;;6.17;1.73;;;;;;;;;;5094607;28;20474;-75
2022/08/23 11:54:52;;;;;;;2.50;1.43;;;;;;;;;;5094149;28;20548;-75
2022/08/23 11:57:26;;;;;;;2.93;1.60;;;;;;;;;;5094525;28;20813;-75
2022/08/23 12:00:06;;;;;;;2.67;1.70;;;;;;;;;;5094565;28;20459;-75
2022/08/23 12:02:36;;;;;;;6.20;2.00;;;;;;;;;;5094053;28;20550;-75
2022/08/23 12:05:06;;;;;;;2.50;1.87;;;;;;;;;;5093955;28;20507;-75
2022/08/23 12:07:47;;;;;;;2.10;1.90;;;;;;;;;;5094024;28;20553;-75
2022/08/23 12:10:16;;;;;;;4.03;1.67;;;;;;;;;;5094181;28;20446;-75
2022/08/23 12:12:45;;;;;;;3.30;1.80;;;;;;;;;;5093705;28;20451;-75
2022/08/23 12:15:13;;;;;;;4.63;1.80;;;;;;;;;;5093957;28;20928;-74
2022/08/23 12:17:57;;;;;;;2.10;1.90;;;;;;;;;;5093950;28;20503;-75
2022/08/23 12:20:29;;;;;;;1.90;1.70;;;;;;;;;;5093844;28;20450;-74
2022/08/23 12:23:01;;;;;;;1.87;1.33;;;;;;;;;;5093993;28;20842;-75
2022/08/23 12:25:29;;;;;;;3.50;1.80;;;;;;;;;;5093521;28;20490;-75
2022/08/23 12:28:02;;;;;;;1.90;1.50;;;;;;;;;;5093816;28;20459;-75
2022/08/23 12:30:33;;;;;;;3.47;1.80;;;;;;;;;;5093641;28;20451;-75
2022/08/23 12:33:03;;;;;;;3.30;1.63;;;;;;;;;;5093849;28;20509;-75
2022/08/23 12:35:34;;;;;;;2.10;1.90;;;;;;;;;;5093499;28;20461;-75
2022/08/23 12:38:04;;;;;;;2.80;1.60;;;;;;;;;;5093695;28;20458;-74
2022/08/23 12:40:33;;;;;;;3.90;1.80;;;;;;;;;;5093659;28;20904;-75
2022/08/23 12:43:06;;;;;;;4.37;1.70;;;;;;;;;;5093606;28;21039;-75
2022/08/23 12:45:37;;;;;;;1.70;1.60;;;;;;;;;;5093277;28;20510;-75
2022/08/23 12:48:07;;;;;;;2.03;1.73;;;;;;;;;;5093665;28;20443;-75
2022/08/23 12:50:37;;;;;;;2.60;1.70;;;;;;;;;;5093540;28;20465;-75
2022/08/23 12:53:05;;;;;;;1.90;1.53;;;;;;;;;;5092806;28;21007;-75
2022/08/23 12:55:40;;;;;;;3.30;2.30;;;;;;;;;;5093248;28;20451;-75
2022/08/23 12:58:09;;;;;;;1.93;1.73;;;;;;;;;;5093424;28;20473;-75
2022/08/23 13:00:39;;;;;;;3.00;1.90;;;;;;;;;;5093058;28;20447;-75
2022/08/23 13:03:11;;;;;;;6.30;1.90;;;;;;;;;;5093164;28;20482;-75
2022/08/23 13:05:42;;;;;;;1.70;1.60;;;;;;;;;;5092767;28;20458;-75
2022/08/23 13:08:10;;;;;;;2.23;1.60;;;;;;;;;;5093241;28;20451;-75
2022/08/23 13:10:39;;;;;;;2.10;1.77;;;;;;;;;;5093379;28;20462;-74
2022/08/23 13:13:10;;;;;;;5.17;2.13;;;;;;;;;;5092568;28;20979;-74
2022/08/23 13:15:42;;;;;;;4.23;1.50;;;;;;;;;;5092901;28;20987;-76
2022/08/23 13:18:09;;;;;;;2.77;1.50;;;;;;;;;;5092922;28;20455;-75
2022/08/23 13:20:37;;;;;;;2.53;2.30;;;;;;;;;;5093114;28;20540;-76
2022/08/23 13:23:05;;;;;;;3.47;2.00;;;;;;;;;;5092856;28;20477;-75
2022/08/23 13:25:34;;;;;;;3.90;1.80;;;;;;;;;;5092601;28;20461;-75
2022/08/23 13:28:01;;;;;;;1.73;1.40;;;;;;;;;;5092916;28;20951;-75
2022/08/23 13:30:31;;;;;;;4.10;1.33;;;;;;;;;;5092864;28;20553;-75
2022/08/23 13:33:16;;;;;;;2.63;1.50;;;;;;;;;;5092774;28;20478;-74
2022/08/23 13:35:44;;;;;;;6.40;1.73;;;;;;;;;;5092590;28;20462;-75
2022/08/23 13:38:16;;;;;;;2.23;1.60;;;;;;;;;;5092852;28;20446;-75
2022/08/23 13:40:47;;;;;;;2.60;1.70;;;;;;;;;;5093080;28;20446;-75
2022/08/23 13:43:16;;;;;;;2.27;1.87;;;;;;;;;;5092613;28;20481;-75
2022/08/23 13:45:47;;;;;;;2.20;2.00;;;;;;;;;;5092485;28;20459;-75
2022/08/23 13:48:16;;;;;;;2.33;1.50;;;;;;;;;;5092655;28;20455;-75
2022/08/23 13:50:44;;;;;;;2.80;1.70;;;;;;;;;;5092841;28;20479;-76
2022/08/23 13:53:11;;;;;;;2.50;1.50;;;;;;;;;;5092719;28;20474;-75
2022/08/23 13:55:41;;;;;;;3.67;2.37;;;;;;;;;;5092403;28;20450;-75
2022/08/23 13:58:10;;;;;;;2.50;1.80;;;;;;;;;;5092697;28;20835;-75
2022/08/23 14:00:37;;;;;;;3.30;1.57;;;;;;;;;;5092560;28;20830;-75
2022/08/23 14:03:06;;;;;;;5.20;2.20;;;;;;;;;;5092554;28;20980;-75
2022/08/23 14:05:34;;;;;;;3.50;2.10;;;;;;;;;;5095905;28;20455;-74
2022/08/23 14:08:01;;;;;;;10.97;1.67;;;;;;;;;;5096441;28;20846;-75
2022/08/23 14:10:28;;;;;;;2.70;1.50;;;;;;;;;;5096360;28;20450;-74
2022/08/23 14:12:56;;;;;;;2.03;1.60;;;;;;;;;;5096074;28;20527;-74
2022/08/23 14:15:23;;;;;;;2.87;1.63;;;;;;;;;;5096141;28;20541;-74
2022/08/23 14:17:51;;;;;;;4.90;1.60;;;;;;;;;;5096286;28;20534;-75
2022/08/23 14:20:20;;;;;;;3.73;1.97;;;;;;;;;;5096367;28;20462;-75
2022/08/23 14:22:47;;;;;;;2.63;1.60;;;;;;;;;;5096056;28;20545;-75
2022/08/23 14:25:15;;;;;;;9.63;2.00;;;;;;;;;;5095987;28;20459;-75
2022/08/23 14:27:43;;;;;;;2.30;2.10;;;;;;;;;;5096123;28;20494;-75
2022/08/23 14:30:11;;;;;;;2.20;1.50;;;;;;;;;;5096096;28;20495;-76
2022/08/23 14:32:39;;;;;;;2.93;2.00;;;;;;;;;;5095992;28;20461;-75
2022/08/23 14:35:07;;;;;;;3.50;2.17;;;;;;;;;;5095890;28;20458;-75
2022/08/23 14:37:36;;;;;;;2.57;1.60;;;;;;;;;;5095918;28;20457;-74
2022/08/23 14:40:03;;;;;;;4.20;3.50;;;;;;;;;;5096105;28;20971;-75
2022/08/23 14:42:31;;;;;;;2.80;2.10;;;;;;;;;;5096055;28;20974;-76
2022/08/23 14:44:58;;;;;;;2.80;1.87;;;;;;;;;;5096008;28;20454;-75
2022/08/23 14:47:25;;;;;;;2.27;1.90;;;;;;;;;;5095639;28;20854;-75
2022/08/23 14:49:52;;;;;;;2.50;1.77;;;;;;;;;;5095820;28;21007;-75
2022/08/23 14:52:19;;;;;;;3.40;1.90;;;;;;;;;;5095568;28;20451;-75
2022/08/23 14:54:48;;;;;;;4.70;3.30;;;;;;;;;;5095365;28;20470;-75
2022/08/23 14:57:15;;;;;;;3.43;1.93;;;;;;;;;;5095573;28;20450;-75
2022/08/23 14:59:42;;;;;;;2.00;1.60;;;;;;;;;;5095828;28;20996;-75
2022/08/23 15:02:11;;;;;;;3.10;1.70;;;;;;;;;;5095656;28;20461;-75
2022/08/23 15:04:40;;;;;;;2.93;2.20;;;;;;;;;;5095204;28;21024;-75
2022/08/23 15:07:07;;;;;;;2.40;1.80;;;;;;;;;;5095403;28;20482;-75
2022/08/23 15:09:34;;;;;;;2.80;2.60;;;;;;;;;;5095283;28;20828;-75